createdAt,value
2019-01-08T00:00:52.090Z,11.40
2019-01-08T00:03:31.770Z,12.43
2019-01-08T00:06:11.825Z,11.83
2019-01-08T00:08:51.822Z,12.07
2019-01-08T00:11:31.737Z,11.47
2019-01-08T00:14:12.024Z,10.53
2019-01-08T00:16:52.318Z,10.73
2019-01-08T00:19:31.990Z,11.13
2019-01-08T00:22:12.074Z,10.10
2019-01-08T00:24:51.986Z,10.33
2019-01-08T00:27:32.537Z,10.90
2019-01-08T00:30:12.192Z,10.07
2019-01-08T00:32:52.500Z,9.83
2019-01-08T00:35:32.446Z,9.33
2019-01-08T00:38:12.288Z,9.63
2019-01-08T00:40:52.319Z,9.07
2019-01-08T00:43:32.292Z,9.23
2019-01-08T00:46:12.252Z,7.67
2019-01-08T00:48:53.071Z,7.50
2019-01-08T00:51:33.408Z,7.47
2019-01-08T00:54:13.261Z,6.17
2019-01-08T00:56:53.265Z,5.77
2019-01-08T00:59:33.614Z,4.50
2019-01-08T01:02:13.400Z,5.33
2019-01-08T01:04:53.388Z,4.17
2019-01-08T01:07:33.283Z,3.70
2019-01-08T01:10:13.280Z,3.83
2019-01-08T01:12:53.159Z,3.23
2019-01-08T01:15:33.270Z,3.23
2019-01-08T01:18:13.026Z,3.50
2019-01-08T01:20:53.707Z,3.00
2019-01-08T01:23:21.388Z,2.93
2019-01-08T01:26:08.391Z,3.17
2019-01-08T01:28:59.926Z,3.70
2019-01-08T01:31:37.139Z,3.00
2019-01-08T01:34:17.955Z,3.27
2019-01-08T01:36:58.295Z,3.80
2019-01-08T01:39:38.211Z,2.97
2019-01-08T01:42:18.205Z,2.93
2019-01-08T01:44:58.198Z,3.30
2019-01-08T01:47:38.232Z,2.83
2019-01-08T01:50:19.103Z,3.20
2019-01-08T01:52:59.257Z,3.30
2019-01-08T01:55:39.581Z,2.53
2019-01-08T01:58:19.274Z,2.70
2019-01-08T02:00:59.219Z,3.20
2019-01-08T02:03:39.337Z,2.67
2019-01-08T02:06:19.401Z,3.07
2019-01-08T02:08:59.484Z,2.93
2019-01-08T02:11:40.985Z,2.70
2019-01-08T02:14:20.661Z,2.70
2019-01-08T02:17:00.678Z,2.47
2019-01-08T02:19:40.468Z,2.43
2019-01-08T02:22:20.455Z,2.13
2019-01-08T02:25:00.976Z,2.67
2019-01-08T02:27:40.589Z,2.63
2019-01-08T02:30:20.694Z,2.57
2019-01-08T02:33:00.777Z,2.50
2019-01-08T02:35:40.707Z,3.00
2019-01-08T02:38:20.831Z,2.63
2019-01-08T02:41:01.046Z,2.57
2019-01-08T02:43:41.108Z,2.90
2019-01-08T02:46:21.255Z,2.70
2019-01-08T02:49:01.141Z,2.80
2019-01-08T02:51:41.302Z,3.40
2019-01-08T02:54:21.416Z,3.10
2019-01-08T02:57:01.421Z,3.10
2019-01-08T02:59:41.395Z,2.83
2019-01-08T03:02:21.309Z,2.87
2019-01-08T03:05:01.372Z,2.93
2019-01-08T03:07:41.449Z,3.20
2019-01-08T03:10:21.401Z,2.90
2019-01-08T03:13:01.374Z,3.17
2019-01-08T03:15:28.949Z,3.17
2019-01-08T03:18:15.999Z,4.03
2019-01-08T03:21:03.007Z,3.67
2019-01-08T03:23:43.369Z,3.23
2019-01-08T03:26:23.428Z,3.53
2019-01-08T03:29:03.660Z,3.20
2019-01-08T03:31:31.238Z,3.70
2019-01-08T03:34:18.259Z,3.60
2019-01-08T03:37:05.641Z,3.33
2019-01-08T03:39:45.603Z,2.90
2019-01-08T03:42:25.711Z,3.60
2019-01-08T03:45:05.684Z,3.37
2019-01-08T03:47:45.755Z,3.40
2019-01-08T03:50:25.749Z,3.10
2019-01-08T03:53:05.624Z,2.90
2019-01-08T03:55:45.832Z,3.23
2019-01-08T03:58:25.793Z,3.60
2019-01-08T04:01:05.753Z,3.13
2019-01-08T04:03:45.686Z,3.13
2019-01-08T04:06:25.674Z,3.60
2019-01-08T04:09:05.559Z,3.37
2019-01-08T04:11:45.498Z,3.33
2019-01-08T04:14:25.624Z,3.90
2019-01-08T04:17:05.723Z,4.47
2019-01-08T04:19:45.816Z,4.33
2019-01-08T04:22:25.826Z,4.20
2019-01-08T04:24:53.421Z,3.80
2019-01-08T04:27:40.479Z,3.67
2019-01-08T04:30:27.485Z,3.87
2019-01-08T04:33:14.511Z,4.13
2019-01-08T04:35:54.733Z,3.77
2019-01-08T04:38:34.622Z,4.40
2019-01-08T04:41:02.312Z,3.97
2019-01-08T04:43:49.377Z,3.97
2019-01-08T04:49:44.708Z,3.80
2019-01-08T04:52:24.631Z,2.97
2019-01-08T04:55:04.534Z,3.50
2019-01-08T04:57:44.620Z,4.23
2019-01-08T05:00:24.648Z,3.50
2019-01-08T05:03:04.646Z,3.53
2019-01-08T05:05:44.824Z,3.47
2019-01-08T05:08:24.941Z,4.53
2019-01-08T05:11:04.873Z,3.93
2019-01-08T05:13:32.527Z,3.57
2019-01-08T05:16:12.916Z,3.27
2019-01-08T05:18:53.538Z,3.70
2019-01-08T05:21:21.148Z,3.53
2019-01-08T05:24:08.156Z,4.20
2019-01-08T05:26:47.862Z,4.13
2019-01-08T05:29:27.921Z,4.27
2019-01-08T05:32:07.976Z,3.83
2019-01-08T05:34:48.205Z,3.37
2019-01-08T05:37:28.339Z,3.90
2019-01-08T05:40:08.528Z,3.90
2019-01-08T05:42:48.396Z,3.53
2019-01-08T05:45:28.355Z,3.97
2019-01-08T05:48:11.842Z,3.93
2019-01-08T05:50:52.226Z,4.10
2019-01-08T05:56:19.729Z,3.80
2019-01-08T05:58:59.412Z,4.57
2019-01-08T06:01:39.386Z,4.37
2019-01-08T06:04:19.473Z,4.07
2019-01-08T06:06:59.795Z,4.47
2019-01-08T06:09:40.692Z,3.30
2019-01-08T06:12:20.718Z,3.40
2019-01-08T06:15:00.836Z,3.17
2019-01-08T06:17:41.058Z,3.17
2019-01-08T06:20:20.885Z,3.93
2019-01-08T06:23:00.956Z,3.30
2019-01-08T06:25:40.902Z,3.60
2019-01-08T06:28:21.006Z,3.83
2019-01-08T06:31:00.914Z,3.10
2019-01-08T06:33:43.416Z,3.50
2019-01-08T06:36:22.946Z,4.00
2019-01-08T06:39:04.218Z,4.67
2019-01-08T06:44:31.269Z,4.07
2019-01-08T06:49:59.976Z,3.67
2019-01-08T06:52:39.990Z,3.17
2019-01-08T06:55:20.200Z,3.50
2019-01-08T06:58:00.728Z,4.07
2019-01-08T07:00:40.742Z,3.17
2019-01-08T07:03:20.735Z,3.30
2019-01-08T07:05:48.544Z,3.77
2019-01-08T07:08:35.680Z,3.10
2019-01-08T07:11:15.334Z,3.47
2019-01-08T07:13:55.300Z,3.60
2019-01-08T07:16:35.152Z,3.40
2019-01-08T07:19:17.045Z,3.27
2019-01-08T07:21:57.110Z,3.10
2019-01-08T07:24:36.918Z,3.77
2019-01-08T07:27:17.110Z,3.50
2019-01-08T07:29:57.009Z,3.00
2019-01-08T07:32:36.930Z,3.10
2019-01-08T07:35:16.952Z,3.70
2019-01-08T07:37:56.776Z,3.17
2019-01-08T07:43:22.712Z,3.40
2019-01-08T07:46:02.768Z,3.43
2019-01-08T07:48:42.501Z,3.33
2019-01-08T07:51:22.750Z,3.20
2019-01-08T07:54:02.633Z,3.60
2019-01-08T07:56:42.643Z,3.57
2019-01-08T07:59:22.936Z,3.23
2019-01-08T08:02:03.070Z,3.07
2019-01-08T08:04:47.521Z,3.37
2019-01-08T08:10:37.616Z,2.90
2019-01-08T08:13:18.153Z,3.03
2019-01-08T08:15:58.224Z,3.40
2019-01-08T08:18:38.447Z,4.30
2019-01-08T08:21:19.767Z,3.33
2019-01-08T08:23:59.400Z,3.20
2019-01-08T08:26:39.304Z,5.83
2019-01-08T08:29:19.230Z,3.20
2019-01-08T08:31:59.372Z,3.27
2019-01-08T08:34:39.156Z,3.00
2019-01-08T08:37:19.060Z,3.03
2019-01-08T08:39:59.075Z,3.30
2019-01-08T08:42:38.956Z,2.50
2019-01-08T08:45:18.994Z,3.60
2019-01-08T08:47:58.844Z,3.00
2019-01-08T08:50:38.872Z,3.03
2019-01-08T08:53:19.962Z,2.97
2019-01-08T08:56:00.012Z,2.67
2019-01-08T08:58:40.040Z,2.67
2019-01-08T09:01:20.084Z,2.97
2019-01-08T09:04:00.274Z,2.60
2019-01-08T09:06:40.199Z,2.47
2019-01-08T09:09:20.170Z,1.57
2019-01-08T09:12:00.064Z,2.30
2019-01-08T09:14:40.138Z,2.03
2019-01-08T09:20:10.389Z,2.30
2019-01-08T09:22:50.984Z,2.50
2019-01-08T09:25:30.987Z,2.00
2019-01-08T09:28:10.689Z,2.40
2019-01-08T09:30:50.591Z,2.30
2019-01-08T09:36:16.633Z,2.10
2019-01-08T09:38:56.797Z,2.20
2019-01-08T09:41:36.694Z,2.33
2019-01-08T09:44:16.511Z,2.50
2019-01-08T09:46:57.044Z,2.70
2019-01-08T09:49:36.681Z,2.70
2019-01-08T09:52:16.745Z,2.83
2019-01-08T09:54:56.892Z,2.20
2019-01-08T09:57:36.737Z,2.20
2019-01-08T10:00:16.727Z,2.03
2019-01-08T10:02:56.653Z,1.93
2019-01-08T10:05:36.475Z,2.53
2019-01-08T10:08:16.537Z,2.10
2019-01-08T10:10:56.514Z,1.57
2019-01-08T10:13:36.344Z,1.87
2019-01-08T10:16:16.158Z,2.00
2019-01-08T10:18:56.079Z,2.43
2019-01-08T10:21:36.054Z,1.57
2019-01-08T10:24:16.174Z,2.10
2019-01-08T10:26:56.126Z,2.17
2019-01-08T10:29:36.115Z,2.13
2019-01-08T10:32:16.195Z,2.17
2019-01-08T10:34:56.272Z,2.37
2019-01-08T10:37:36.283Z,2.40
2019-01-08T10:40:16.187Z,2.00
2019-01-08T10:42:56.258Z,2.13
2019-01-08T10:45:36.235Z,2.43
2019-01-08T10:48:16.092Z,3.47
2019-01-08T10:50:56.047Z,2.90
2019-01-08T10:53:36.126Z,2.60
2019-01-08T10:56:16.137Z,2.20
2019-01-08T10:58:56.015Z,3.03
2019-01-08T11:01:40.445Z,2.47
2019-01-08T11:07:01.255Z,2.70
2019-01-08T11:09:41.185Z,3.27
2019-01-08T11:12:21.350Z,2.40
2019-01-08T11:15:01.353Z,2.27
2019-01-08T11:17:41.606Z,2.67
2019-01-08T11:20:21.861Z,2.90
2019-01-08T11:23:01.796Z,2.93
2019-01-08T11:25:41.869Z,3.70
2019-01-08T11:28:21.947Z,3.20
2019-01-08T11:31:02.040Z,2.97
2019-01-08T11:33:42.233Z,3.60
2019-01-08T11:36:22.139Z,3.00
2019-01-08T11:39:02.109Z,3.40
2019-01-08T11:41:42.149Z,3.00
2019-01-08T11:44:22.149Z,2.80
2019-01-08T11:47:02.173Z,2.73
2019-01-08T11:49:29.788Z,2.87
2019-01-08T11:52:16.757Z,2.97
2019-01-08T11:54:57.207Z,2.90
2019-01-08T11:57:37.326Z,2.90
2019-01-08T12:00:17.783Z,2.97
2019-01-08T12:02:58.031Z,3.07
2019-01-08T12:05:38.125Z,3.23
2019-01-08T12:08:18.305Z,3.23
2019-01-08T12:10:58.593Z,2.83
2019-01-08T12:13:38.323Z,3.57
2019-01-08T12:16:18.161Z,3.50
2019-01-08T12:18:58.222Z,3.23
2019-01-08T12:21:38.378Z,3.67
2019-01-08T12:24:18.562Z,3.37
2019-01-08T12:26:58.545Z,3.53
2019-01-08T12:29:38.428Z,3.77
2019-01-08T12:32:18.480Z,3.93
2019-01-08T12:34:58.470Z,4.73
2019-01-08T12:37:38.567Z,3.77
2019-01-08T12:40:18.491Z,4.83
2019-01-08T12:42:58.309Z,4.37
2019-01-08T12:45:38.225Z,4.10
2019-01-08T12:48:18.141Z,4.17
2019-01-08T12:50:58.026Z,4.10
2019-01-08T12:53:38.107Z,3.63
2019-01-08T12:56:18.275Z,3.53
2019-01-08T12:58:58.413Z,3.50
2019-01-08T13:01:38.343Z,3.70
2019-01-08T13:04:18.381Z,3.83
2019-01-08T13:06:58.371Z,4.83
2019-01-08T13:09:38.467Z,4.60
2019-01-08T13:12:18.737Z,4.00
2019-01-08T13:14:58.831Z,3.60
2019-01-08T13:17:38.857Z,4.23
2019-01-08T13:20:18.818Z,5.90
2019-01-08T13:22:58.695Z,3.73
2019-01-08T13:25:38.620Z,4.20
2019-01-08T13:28:18.516Z,3.60
2019-01-08T13:30:58.761Z,4.30
2019-01-08T13:33:38.753Z,3.83
2019-01-08T13:36:18.607Z,3.50
2019-01-08T13:38:46.175Z,4.63
2019-01-08T13:41:33.187Z,4.80
2019-01-08T13:44:20.231Z,4.47
2019-01-08T13:47:00.609Z,5.03
2019-01-08T13:49:40.780Z,3.33
2019-01-08T13:52:20.779Z,4.37
2019-01-08T13:55:01.345Z,4.33
2019-01-08T13:57:41.979Z,4.70
2019-01-08T14:00:22.106Z,3.40
2019-01-08T14:03:02.160Z,4.00
2019-01-08T14:05:42.058Z,3.93
2019-01-08T14:08:23.491Z,3.80
2019-01-08T14:11:03.163Z,4.07
2019-01-08T14:13:43.119Z,3.90
2019-01-08T14:16:23.017Z,4.07
2019-01-08T14:19:02.971Z,4.43
2019-01-08T14:21:43.239Z,4.53
2019-01-08T14:24:10.857Z,4.57
2019-01-08T14:26:57.916Z,3.70
2019-01-08T14:29:44.955Z,4.40
2019-01-08T14:32:25.206Z,4.17
2019-01-08T14:35:05.272Z,4.80
2019-01-08T14:41:00.637Z,5.13
2019-01-08T14:43:40.426Z,3.80
2019-01-08T14:46:20.486Z,4.00
2019-01-08T14:49:00.501Z,4.50
2019-01-08T14:51:40.474Z,4.30
2019-01-08T14:54:20.471Z,4.70
2019-01-08T14:57:00.534Z,4.23
2019-01-08T14:59:41.534Z,4.90
2019-01-08T15:02:21.401Z,4.73
2019-01-08T15:07:44.195Z,4.40
2019-01-08T15:10:23.972Z,4.60
2019-01-08T15:12:51.693Z,4.70
2019-01-08T15:15:31.883Z,4.37
2019-01-08T15:18:11.882Z,4.60
2019-01-08T15:20:51.721Z,4.70
2019-01-08T15:23:31.774Z,4.07
2019-01-08T15:26:11.913Z,4.07
2019-01-08T15:28:52.092Z,3.80
2019-01-08T15:34:15.315Z,4.57
2019-01-08T15:36:55.325Z,4.20
2019-01-08T15:39:35.414Z,4.30
2019-01-08T15:42:15.410Z,4.53
2019-01-08T15:44:55.242Z,4.10
2019-01-08T15:47:35.200Z,3.73
2019-01-08T15:50:15.338Z,4.17
2019-01-08T15:52:55.390Z,3.80
2019-01-08T15:55:35.298Z,4.97
2019-01-08T16:00:58.277Z,4.27
2019-01-08T16:06:21.425Z,4.33
2019-01-08T16:09:01.568Z,3.80
2019-01-08T16:11:41.831Z,4.37
2019-01-08T16:14:21.835Z,3.40
2019-01-08T16:17:02.974Z,3.70
2019-01-08T16:22:26.755Z,4.07
2019-01-08T16:25:06.641Z,4.73
2019-01-08T16:27:46.684Z,4.53
2019-01-08T16:30:28.762Z,3.90
2019-01-08T16:33:15.860Z,3.50
2019-01-08T16:35:50.446Z,2.70
2019-01-08T16:38:31.824Z,2.30
2019-01-08T16:43:48.867Z,3.00
2019-01-08T16:46:35.914Z,2.60
2019-01-08T16:49:19.804Z,2.53
2019-01-08T16:52:00.583Z,2.30
2019-01-08T16:54:40.599Z,1.93
2019-01-08T16:57:20.737Z,2.70
2019-01-08T17:00:00.915Z,2.30
2019-01-08T17:02:40.864Z,2.30
2019-01-08T17:08:06.880Z,3.90
2019-01-08T17:10:46.978Z,3.90
2019-01-08T17:13:27.126Z,3.37
2019-01-08T17:16:07.114Z,3.07
2019-01-08T17:18:48.595Z,4.23
2019-01-08T17:21:29.048Z,3.30
2019-01-08T17:24:09.126Z,2.80
2019-01-08T17:26:56.224Z,3.87
2019-01-08T17:32:22.384Z,3.90
2019-01-08T17:40:31.854Z,2.70
2019-01-08T17:43:11.453Z,1.70
2019-01-08T17:45:51.607Z,2.00
2019-01-08T17:51:20.587Z,2.40
2019-01-08T17:56:49.662Z,2.63
2019-01-08T17:59:29.937Z,2.30
2019-01-08T18:02:09.946Z,2.87
2019-01-08T18:04:49.898Z,3.53
2019-01-08T18:07:31.051Z,2.90
2019-01-08T18:10:10.797Z,3.00
2019-01-08T18:12:50.801Z,3.33
2019-01-08T18:15:30.742Z,3.13
2019-01-08T18:18:11.984Z,3.53
2019-01-08T18:20:52.529Z,4.67
2019-01-08T18:23:32.791Z,3.47
2019-01-08T18:29:19.014Z,3.50
2019-01-08T18:31:59.027Z,3.50
2019-01-08T18:34:38.935Z,3.60
2019-01-08T18:37:19.042Z,4.07
2019-01-08T18:39:59.039Z,3.97
2019-01-08T18:42:38.977Z,3.33
2019-01-08T18:45:18.848Z,4.00
2019-01-08T18:47:58.785Z,3.77
2019-01-08T18:50:38.949Z,3.90
2019-01-08T18:53:18.828Z,3.90
2019-01-08T18:56:00.302Z,3.27
2019-01-08T18:58:40.853Z,3.33
2019-01-08T19:01:21.967Z,4.33
2019-01-08T19:09:31.742Z,3.43
2019-01-08T19:12:20.716Z,3.33
2019-01-08T19:15:09.535Z,3.57
2019-01-08T19:17:32.615Z,3.80
2019-01-08T19:20:15.991Z,3.37
2019-01-08T19:22:55.998Z,3.20
2019-01-08T19:25:36.616Z,2.83
2019-01-08T19:28:16.337Z,2.73
2019-01-08T19:30:56.201Z,2.67
2019-01-08T19:33:36.258Z,2.40
2019-01-08T19:36:16.144Z,2.73
2019-01-08T19:41:39.060Z,2.87
2019-01-08T19:44:19.140Z,2.20
2019-01-08T19:46:59.496Z,2.43
2019-01-08T19:52:10.502Z,3.07
2019-01-08T19:54:57.556Z,3.17
2019-01-08T19:57:37.657Z,3.00
2019-01-08T20:00:17.626Z,3.13
2019-01-08T20:02:57.491Z,3.10
2019-01-08T20:05:37.334Z,3.10
2019-01-08T20:08:18.775Z,3.30
2019-01-08T20:10:59.313Z,3.33
2019-01-08T20:19:11.036Z,3.10
2019-01-08T20:21:53.005Z,3.20
2019-01-08T20:24:34.590Z,3.37
2019-01-08T20:27:15.146Z,3.20
2019-01-08T20:29:42.903Z,2.93
2019-01-08T20:32:33.030Z,2.60
2019-01-08T20:35:14.411Z,2.70
2019-01-08T20:37:42.355Z,2.73
2019-01-08T20:40:29.404Z,3.10
2019-01-08T20:43:16.415Z,2.90
2019-01-08T20:45:56.766Z,2.47
2019-01-08T20:48:36.774Z,2.37
2019-01-08T20:51:16.905Z,3.50
2019-01-08T20:53:56.902Z,2.63
2019-01-08T20:56:36.877Z,2.90
2019-01-08T20:59:17.017Z,2.93
2019-01-08T21:01:57.038Z,2.60
2019-01-08T21:07:22.898Z,3.17
2019-01-08T21:10:02.739Z,2.97
2019-01-08T21:12:44.127Z,2.80
2019-01-08T21:15:23.844Z,3.27
2019-01-08T21:18:03.820Z,7.97
2019-01-08T21:20:43.880Z,3.67
2019-01-08T21:23:23.766Z,3.00
2019-01-08T21:26:03.790Z,3.43
2019-01-08T21:28:43.792Z,3.77
2019-01-08T21:31:23.801Z,3.70
2019-01-08T21:34:03.754Z,3.43
2019-01-08T21:36:43.930Z,5.27
2019-01-08T21:39:25.299Z,3.47
2019-01-08T21:44:48.060Z,4.73
2019-01-08T21:47:29.269Z,3.87
2019-01-08T21:50:09.018Z,3.70
2019-01-08T21:52:49.207Z,3.10
2019-01-08T21:55:29.173Z,3.90
2019-01-08T21:58:09.086Z,3.53
2019-01-08T22:00:49.202Z,3.27
2019-01-08T22:03:28.979Z,3.90
2019-01-08T22:06:09.004Z,3.63
2019-01-08T22:08:49.041Z,3.50
2019-01-08T22:11:28.889Z,3.80
2019-01-08T22:16:53.464Z,2.97
2019-01-08T22:19:35.219Z,2.90
2019-01-08T22:22:15.245Z,2.83
2019-01-08T22:24:55.255Z,3.00
2019-01-08T22:30:21.358Z,3.00
2019-01-08T22:33:01.335Z,2.77
2019-01-08T22:35:41.210Z,2.97
2019-01-08T22:38:21.055Z,3.00
2019-01-08T22:41:01.286Z,3.10
2019-01-08T22:43:41.191Z,3.37
2019-01-08T22:46:21.143Z,2.90
2019-01-08T22:49:01.065Z,3.57
2019-01-08T22:51:41.025Z,3.53
2019-01-08T22:54:21.011Z,3.10
2019-01-08T22:57:01.095Z,3.20
2019-01-08T22:59:41.085Z,3.37
2019-01-08T23:02:21.175Z,3.57
2019-01-08T23:05:01.176Z,3.27
2019-01-08T23:07:41.062Z,3.30
2019-01-08T23:10:21.037Z,3.27
2019-01-08T23:13:01.075Z,3.30
2019-01-08T23:15:41.006Z,3.70
2019-01-08T23:18:20.960Z,3.07
2019-01-08T23:21:01.006Z,3.27
2019-01-08T23:23:41.141Z,3.63
2019-01-08T23:26:21.193Z,3.37
2019-01-08T23:29:01.139Z,3.30
2019-01-08T23:31:41.150Z,3.57
2019-01-08T23:34:21.093Z,3.20
2019-01-08T23:37:00.943Z,3.27
2019-01-08T23:39:40.912Z,3.20
2019-01-08T23:42:20.769Z,3.03
2019-01-08T23:45:00.809Z,2.87
2019-01-08T23:47:40.842Z,3.30
2019-01-08T23:50:20.847Z,3.53
2019-01-08T23:53:01.034Z,3.37
2019-01-08T23:55:41.223Z,2.73
2019-01-08T23:58:21.117Z,4.07
